WetterOnline ( https://www.wetteronline.de )

Wetter aktuell Karlsruhe

Aktuelles Wetter: Rheinstetten (116m)

6-stündlich | Neueste Meldungen
Ortszeit Temperatur Wetter
Fr, 28.01. 19:00 3.9° C wolkig
Fr, 28.01. 13:00 5.6° C wolkig
Fr, 28.01. 7:00 2.5° C wolkig
Fr, 28.01. 1:00 2.1° C wolkig
Do, 27.01. 19:00 1.2° C bedeckt
Do, 27.01. 13:00 1.0° C bewölkt
Do, 27.01. 7:00 -1.2° C bewölkt
Do, 27.01. 1:00 -0.8° C bewölkt
Ortszeit Temperatur Wetter
Fr, 28.01. 23:30 2.9° C bedeckt
Fr, 28.01. 23:20 2.9° C bedeckt
Fr, 28.01. 23:10 3.0° C bedeckt
Fr, 28.01. 23:00 2.9° C bewölkt
Fr, 28.01. 22:50 2.9° C bewölkt
Fr, 28.01. 22:40 2.9° C wolkig
Fr, 28.01. 22:30 3.0° C bedeckt
Fr, 28.01. 22:00 3.4° C bedeckt
Fr, 28.01. 21:30 3.6° C wolkig
Fr, 28.01. 21:00 3.8° C wolkig
Fr, 28.01. 20:30 3.9° C wolkig
Ortszeit Relative Feuchte Sichtweite
Fr, 28.01. 19:00 84% 18 km
Fr, 28.01. 13:00 82% 21 km
Fr, 28.01. 7:00 94% 8 km
Fr, 28.01. 1:00 92% 11 km
Do, 27.01. 19:00 94% 3.2 km
Do, 27.01. 13:00 82% 14 km
Do, 27.01. 7:00 86% 11 km
Do, 27.01. 1:00 88% 10 km
Ortszeit Relative Feuchte Sichtweite
Fr, 28.01. 23:30 87% 19 km
Fr, 28.01. 23:20 87% -
Fr, 28.01. 23:10 88% -
Fr, 28.01. 23:00 88% 18 km
Fr, 28.01. 22:50 88% -
Fr, 28.01. 22:40 88% -
Fr, 28.01. 22:30 87% 17 km
Fr, 28.01. 22:00 86% 16 km
Fr, 28.01. 21:30 86% 16 km
Fr, 28.01. 21:00 85% 17 km
Fr, 28.01. 20:30 85% 17 km
Ortszeit Niederschlagsmenge Niederschlagsart
Fr, 28.01. 19:00 0.1 l/m2 in 12 Std. Sprühregen
Fr, 28.01. 13:00 0.1 l/m2 in 6 Std. Sprühregen
Fr, 28.01. 7:00 0.2 l/m2 in 12 Std. -
Fr, 28.01. 1:00 0.2 l/m2 in 6 Std. Regen
Do, 27.01. 19:00 0.1 l/m2 in 12 Std. Sprühregen
Do, 27.01. 13:00 0.0 l/m2 in 6 Std. -
Do, 27.01. 7:00 0.1 l/m2 in 12 Std. Sprühregen
Do, 27.01. 1:00 0.1 l/m2 in 6 Std. Sprühregen
Ortszeit Niederschlagsmenge Niederschlagsart
Fr, 28.01. 23:30 0.0 l/m2 in 1 Std. -
Fr, 28.01. 23:20 keine Meldung -
Fr, 28.01. 23:10 keine Meldung -
Fr, 28.01. 23:00 0.0 l/m2 in 1 Std. -
Fr, 28.01. 22:50 keine Meldung -
Fr, 28.01. 22:40 keine Meldung -
Fr, 28.01. 22:30 0.0 l/m2 in 1 Std. -
Fr, 28.01. 22:00 0.0 l/m2 in 1 Std. -
Fr, 28.01. 21:30 0.0 l/m2 in 1 Std. -
Fr, 28.01. 21:00 0.0 l/m2 in 1 Std. -
Fr, 28.01. 20:30 0.0 l/m2 in 1 Std. -
Ortszeit Stärke Spitze Richtung
km/h Bft. km/h Grad Sektor
Fr, 28.01. 19:00 18 3 36 240° SW
Fr, 28.01. 13:00 25 4 36 240° SW
Fr, 28.01. 7:00 19 3 37 220° SW
Fr, 28.01. 1:00 28 4 44 220° SW
Do, 27.01. 19:00 29 5 43 240° SW
Do, 27.01. 13:00 26 4 43 240° SW
Do, 27.01. 7:00 18 3 32 260° W
Do, 27.01. 1:00 14 3 29 250° W
Ortszeit Stärke Spitze Richtung
km/h Bft. km/h Grad Sektor
Fr, 28.01. 23:30 11 2 18 200° S
Fr, 28.01. 23:20 11 2 - 200° S
Fr, 28.01. 23:10 11 2 - 210° SW
Fr, 28.01. 23:00 13 3 17 230° SW
Fr, 28.01. 22:50 13 3 - 230° SW
Fr, 28.01. 22:40 13 3 - 230° SW
Fr, 28.01. 22:30 11 2 17 220° SW
Fr, 28.01. 22:00 14 3 22 210° SW
Fr, 28.01. 21:30 14 3 22 220° SW
Fr, 28.01. 21:00 17 3 28 220° SW
Fr, 28.01. 20:30 18 3 29 230° SW
Ortszeit Untergrenze Bedeckung Gattung
total tief tief mittel hoch
Fr, 28.01. 19:00 840 m 8/8 2/8 - - -
Fr, 28.01. 13:00 1500 m 5/8 5/8 - - -
Fr, 28.01. 7:00 180 m 5/8 4/8 - - -
Fr, 28.01. 1:00 270 m 6/8 6/8 - - -
Do, 27.01. 19:00 210 m 8/8 8/8 - - -
Do, 27.01. 13:00 510 m 7/8 7/8 - - -
Do, 27.01. 7:00 270 m 7/8 7/8 - - -
Do, 27.01. 1:00 240 m 7/8 7/8 - - -
Ortszeit Bedeckungsgrad in Achtel und Wolkenuntergrenze
Fr, 28.01. 23:30 8(3600m)
Fr, 28.01. 23:20 8(3600m)
Fr, 28.01. 23:10 8
Fr, 28.01. 23:00 7(3900m)
Fr, 28.01. 22:50 7(3900m)
Fr, 28.01. 22:40 6
Fr, 28.01. 22:30 8(3900m) 8(6600m)
Fr, 28.01. 22:00 8(3600m)
Fr, 28.01. 21:30 1(570m) 5(3300m) 7(3900m)
Fr, 28.01. 21:00 5(570m) 7(3300m) 7(3900m)
Fr, 28.01. 20:30 2(600m) 8(3300m)
Ortszeit Luftdruck NN (hPa) Tendenz (hPa in 3 Std.)
Fr, 28.01. 19:00 1037 + 1,0
Fr, 28.01. 13:00 1037 + 0,3
Fr, 28.01. 7:00 1035 + 1,1
Fr, 28.01. 1:00 1032 + 1,1
Do, 27.01. 19:00 1029 + 0,4
Do, 27.01. 13:00 1030 - 1,1
Do, 27.01. 7:00 1032 - 0,3
Do, 27.01. 1:00 1033 - 1,3
Ortszeit Luftdruck NN (hPa) Tendenz (hPa in 3 Std.)
Fr, 28.01. 23:30 1037 - 1,3
Fr, 28.01. 23:20 1037 keine Meldung
Fr, 28.01. 23:10 1037 keine Meldung
Fr, 28.01. 23:00 1037 - 1,0
Fr, 28.01. 22:50 1037 keine Meldung
Fr, 28.01. 22:40 1037 keine Meldung
Fr, 28.01. 22:30 1037 - 0,7
Fr, 28.01. 22:00 1037 - 0,3
Fr, 28.01. 21:30 1038 + 0,3
Fr, 28.01. 21:00 1038 + 0,7
Fr, 28.01. 20:30 1038 + 1,0
Ortszeit Schneehöhe (cm)
Fr, 28.01. 19:00 0
Fr, 28.01. 13:00 0
Fr, 28.01. 7:00 0
Fr, 28.01. 1:00 0
Do, 27.01. 19:00 0
Do, 27.01. 13:00 0
Do, 27.01. 7:00 0
Do, 27.01. 1:00 0
Ortszeit Schneehöhe (cm)
Fr, 28.01. 23:30 0
Fr, 28.01. 23:20 0
Fr, 28.01. 23:10 0
Fr, 28.01. 23:00 0
Fr, 28.01. 22:50 0
Fr, 28.01. 22:40 0
Fr, 28.01. 22:30 0
Fr, 28.01. 22:00 0
Fr, 28.01. 21:30 0
Fr, 28.01. 21:00 0
Fr, 28.01. 20:30 0
Link zu dieser Seite / Seite empfehlen

Das Wetter in ...